Track Склярова Карина

Time Latitude Longitude Accuracy (66% radius in meters) Altitude (meters) Speed (km/hour) Bearing (degrees) Battery (%) GPS flag
03:48:18 51.901157 107.665249 4 684 0.98000001907349 332.39999389648 27 1 delete
03:48:08 51.901086 107.665337 3 681 0.80000001192093 339.60000610352 27 1 delete
03:48:07 51.901080 107.665344 3 680 0.81000000238419 339.60000610352 27 1 delete
03:47:58 51.901002 107.665424 4 681 0.69999998807907 339.60000610352 27 1 delete
03:47:57 51.900995 107.665430 3 680 0.87000000476837 339.70001220703 27 1 delete
03:47:50 51.900922 107.665501 3 681 0.56000000238419 317.20001220703 27 1 delete
03:47:46 51.900886 107.665528 3 681 0.97000002861023 335.5 27 1 delete
03:47:39 51.900849 107.665594 3 682 1.1100000143051 276.79998779297 27 1 delete
03:47:35 51.900852 107.665663 3 682 0.68999999761581 256.70001220703 27 1 delete
03:47:28 51.900859 107.665740 3 684 0.5 257.10000610352 27 1 delete
03:47:24 51.900867 107.665804 3 684 1.4299999475479 267.70001220703 27 1 delete
03:47:21 51.900876 107.665887 3 685 1.3799999952316 252.39999389648 27 1 delete
03:47:13 51.900894 107.665967 3 685 0.47999998927116 284.79998779297 27 1 delete
03:47:02 51.900902 107.665987 3 685 0 0 27 1 delete
03:46:50 51.900902 107.665987 3 685 0 0 27 1 delete
03:46:39 51.900907 107.665984 3 684 0 0 27 1 delete
03:46:27 51.900894 107.666026 3 685 0.69999998807907 333.89999389648 27 1 delete
03:46:24 51.900877 107.666041 3 686 0.79000002145767 341.70001220703 27 1 delete
03:46:17 51.900836 107.666082 3 687 0 0 27 1 delete
03:46:08 51.900813 107.666144 3 685 0 0 27 1 delete
03:46:05 51.900810 107.666157 3 685 0 0 27 1 delete
03:45:55 51.900768 107.666192 4 685 0.52999997138977 338.60000610352 27 1 delete
03:45:49 51.900737 107.666224 4 686 0.54000002145767 338.70001220703 27 1 delete
03:45:44 51.900704 107.666243 3 687 0.73000001907349 338.5 27 1 delete
03:45:35 51.900643 107.666270 4 685 0.79000002145767 344.20001220703 27 1 delete
03:45:33 51.900622 107.666281 4 685 1.0099999904633 353.79998779297 27 1 delete
03:45:24 51.900568 107.666371 3 683 0.51999998092651 309.20001220703 27 1 delete
03:45:22 51.900562 107.666385 3 683 0.54000002145767 298 27 1 delete
03:45:12 51.900534 107.666506 6 681 0.46000000834465 311 27 1 delete
03:45:11 51.900532 107.666518 7 681 0.89999997615814 303.20001220703 27 1 delete
03:45:00 51.900463 107.666602 6 684 0.46000000834465 24.10000038147 27 1 delete
03:44:58 51.900440 107.666602 5 683 0.6700000166893 327.70001220703 27 1 delete
03:44:50 51.900413 107.666726 5 685 1.3799999952316 264.39999389648 27 1 delete
03:44:47 51.900410 107.666801 5 685 1.0099999904633 317.39999389648 27 1 delete
03:44:41 51.900384 107.666883 7 688 1.3500000238419 292.89999389648 27 1 delete
03:44:35 51.900366 107.666972 4 686 0 0 27 1 delete
03:44:27 51.900348 107.667027 4 686 0.86000001430511 293.29998779297 27 1 delete
03:44:22 51.900341 107.667122 4 685 0.85000002384186 280.29998779297 27 1 delete
03:44:17 51.900317 107.667167 4 685 0.88999998569489 348.5 27 1 delete
03:44:11 51.900259 107.667217 5 682 1.1499999761581 292.79998779297 27 1 delete
03:44:00 51.900260 107.667305 4 680 0 0 27 1 delete
03:43:48 51.900276 107.667301 5 677 0 0 27 1 delete
03:43:37 51.900292 107.667296 4 675 0 0 27 1 delete
03:43:26 51.900301 107.667299 4 676 0 0 27 1 delete
03:43:16 51.900270 107.667304 4 681 0 0 27 1 delete
03:43:15 51.900272 107.667305 4 682 0 0 27 1 delete
03:43:04 51.900271 107.667324 4 684 0 0 27 1 delete
03:42:54 51.900346 107.667382 5 682 1.7200000286102 224.69999694824 27 1 delete
03:42:52 51.900363 107.667432 6 684 1.3600000143051 247 27 1 delete
03:42:48 51.900381 107.667527 6 687 1.8700000047684 238.30000305176 27 1 delete